Ole-arvid Nergaard — LLAY — position and weather

sailwx.info

Track history (hours):
 
Tides and Currents Weather Stations Pressure Air Temp Water Temp Dewpoint Dewpoint Depression Visibility Wind Speed Wind Dir Waves Ship Positions

Ole-arvid Nergaard

Last reported at 2015-Aug-13 15:32 UTC. Time now 2015-Aug-29 03:01 UTC.
Position N 69°39' E 018°59'.
Warning: this ship's position is 15 days out of date.

Length 55 m; draft 7.2 m.

Type: Fishing. MMSI: 259656000.

Date/timePositionNaut miles runAvg speedWind from/ knotsBaromVisibWave heightAir tempDewpointWater temp
2015-Aug-13 15:32N 69°39' E 018°59'0 0.4
2015-Aug-13 14:33N 69°39' E 018°58'0 0.0
2015-Aug-13 13:33N 69°39' E 018°58'0 0.0
2015-Aug-13 12:33N 69°39' E 018°58'0 0.0
2015-Aug-13 11:32N 69°39' E 018°58'0 0.0
2015-Aug-13 10:33N 69°39' E 018°58'0 0.0
2015-Aug-13 09:33N 69°39' E 018°58'0 0.0
2015-Aug-13 08:33N 69°39' E 018°58'0 0.0
2015-Aug-13 07:33N 69°39' E 018°58'0 0.0
2015-Aug-13 06:33N 69°39' E 018°58'0 0.0
2015-Aug-13 05:33N 69°39' E 018°58'0 0.0
2015-Aug-13 04:33N 69°39' E 018°58'0 0.0
2015-Aug-13 03:33N 69°39' E 018°58'0 0.0
2015-Aug-13 02:33N 69°39' E 018°58'0 0.0
2015-Aug-13 01:33N 69°39' E 018°58'0 0.0
2015-Aug-13 00:33N 69°39' E 018°58'0 0.0
2015-Aug-12 23:33N 69°39' E 018°58'0 0.0
2015-Aug-12 22:33N 69°39' E 018°58'0 0.0
2015-Aug-12 21:33N 69°39' E 018°58'0 0.0
2015-Aug-12 20:33N 69°39' E 018°58'0 0.0
2015-Aug-12 19:33N 69°39' E 018°58'0 0.0
2015-Aug-12 18:33N 69°39' E 018°58'0 0.0
2015-Aug-12 17:33N 69°39' E 018°58'1 0.6
2015-Aug-12 16:33N 69°40' E 018°59'3 2.7
2015-Aug-12 15:33N 69°42' E 019°05'2 2.5
2015-Aug-12 14:33N 69°40' E 018°59'0 0.0
2015-Aug-12 13:32N 69°40' E 018°59'0 0.0
2015-Aug-12 12:33N 69°40' E 018°59'0 0.0
2015-Aug-12 11:33N 69°40' E 018°59'0 0.0
2015-Aug-12 10:33N 69°40' E 018°59'0 0.0
2015-Aug-12 09:31N 69°40' E 018°59'0 0.0
2015-Aug-12 08:33N 69°40' E 018°59'0 0.0
2015-Aug-12 07:26N 69°40' E 018°59'0 0.0
2015-Aug-12 06:33N 69°40' E 018°59'0 0.0
2015-Aug-12 05:33N 69°40' E 018°59'0 0.0
2015-Aug-12 04:33N 69°40' E 018°59'0 0.0
2015-Aug-12 03:33N 69°40' E 018°59'3 2.9
2015-Aug-12 02:33N 69°43' E 019°03'  
Track history (hours):
 
Tides and Currents Weather Stations Pressure Air Temp Water Temp Dewpoint Dewpoint Depression Visibility Wind Speed Wind Dir Waves Ship Positions

Ole-arvid Nergaard

Last reported at 2015-Aug-13 15:32 UTC. Time now 2015-Aug-29 03:01 UTC.
Position N 69°39' E 018°59'.
Warning: this ship's position is 15 days out of date.

Length 55 m; draft 7.2 m.

Type: Fishing. MMSI: 259656000.

Date/timePositionNaut miles runAvg speedWind from/ knotsBaromVisibWave heightAir tempDewpointWater temp
2015-Aug-13 15:32N 69°39' E 018°59'0 0.4
2015-Aug-13 14:33N 69°39' E 018°58'0 0.0
2015-Aug-13 13:33N 69°39' E 018°58'0 0.0
2015-Aug-13 12:33N 69°39' E 018°58'0 0.0
2015-Aug-13 11:32N 69°39' E 018°58'0 0.0
2015-Aug-13 10:33N 69°39' E 018°58'0 0.0
2015-Aug-13 09:33N 69°39' E 018°58'0 0.0
2015-Aug-13 08:33N 69°39' E 018°58'0 0.0
2015-Aug-13 07:33N 69°39' E 018°58'0 0.0
2015-Aug-13 06:33N 69°39' E 018°58'0 0.0
2015-Aug-13 05:33N 69°39' E 018°58'0 0.0
2015-Aug-13 04:33N 69°39' E 018°58'0 0.0
2015-Aug-13 03:33N 69°39' E 018°58'0 0.0
2015-Aug-13 02:33N 69°39' E 018°58'0 0.0
2015-Aug-13 01:33N 69°39' E 018°58'0 0.0
2015-Aug-13 00:33N 69°39' E 018°58'0 0.0
2015-Aug-12 23:33N 69°39' E 018°58'0 0.0
2015-Aug-12 22:33N 69°39' E 018°58'0 0.0
2015-Aug-12 21:33N 69°39' E 018°58'0 0.0
2015-Aug-12 20:33N 69°39' E 018°58'0 0.0
2015-Aug-12 19:33N 69°39' E 018°58'0 0.0
2015-Aug-12 18:33N 69°39' E 018°58'0 0.0
2015-Aug-12 17:33N 69°39' E 018°58'1 0.6
2015-Aug-12 16:33N 69°40' E 018°59'3 2.7
2015-Aug-12 15:33N 69°42' E 019°05'2 2.5
2015-Aug-12 14:33N 69°40' E 018°59'0 0.0
2015-Aug-12 13:32N 69°40' E 018°59'0 0.0
2015-Aug-12 12:33N 69°40' E 018°59'0 0.0
2015-Aug-12 11:33N 69°40' E 018°59'0 0.0
2015-Aug-12 10:33N 69°40' E 018°59'0 0.0
2015-Aug-12 09:31N 69°40' E 018°59'0 0.0
2015-Aug-12 08:33N 69°40' E 018°59'0 0.0
2015-Aug-12 07:26N 69°40' E 018°59'0 0.0
2015-Aug-12 06:33N 69°40' E 018°59'0 0.0
2015-Aug-12 05:33N 69°40' E 018°59'0 0.0
2015-Aug-12 04:33N 69°40' E 018°59'0 0.0
2015-Aug-12 03:33N 69°40' E 018°59'3 2.9
2015-Aug-12 02:33N 69°43' E 019°03'  

Dump ship's entire track history